Terminal Aerodrome Forecast
Issued by NWS St Louis, MO

Home | Current Version | Previous Version | Text Only | Print | Product List | Glossary Off
Versions: 1 2 3 4 5 6 7 8 9 10 11 12 13 14 15 16 17 18 19 20 21 22 23 24 25 26 27 28

000
FTUS43 KLSX 301100
TAFSTL
TAF
KSTL 301128Z 3012/3118 19009KT P6SM BKN100
     FM301700 23011KT P6SM VCTS SCT040CB BKN100
     FM310000 19006KT P6SM SCT050 BKN120=

USA.gov is the U.S. government's official web portal to all federal, state and local government web resources and services.